sensor_id;sensor_type;location;lat;lon;timestamp;temperature;humidity
5868;DHT22;2960;49.142;7.768;2022-09-24T00:00:55;13.30;64.00
5868;DHT22;2960;49.142;7.768;2022-09-24T00:03:23;13.30;63.30
5868;DHT22;2960;49.142;7.768;2022-09-24T00:05:54;13.30;63.30
5868;DHT22;2960;49.142;7.768;2022-09-24T00:08:21;13.30;63.40
5868;DHT22;2960;49.142;7.768;2022-09-24T00:10:48;13.30;63.30
5868;DHT22;2960;49.142;7.768;2022-09-24T00:13:16;13.20;64.10
5868;DHT22;2960;49.142;7.768;2022-09-24T00:15:45;13.20;64.10
5868;DHT22;2960;49.142;7.768;2022-09-24T00:18:16;13.20;63.40
5868;DHT22;2960;49.142;7.768;2022-09-24T00:20:44;13.20;63.50
5868;DHT22;2960;49.142;7.768;2022-09-24T00:23:12;13.10;63.50
5868;DHT22;2960;49.142;7.768;2022-09-24T00:25:40;13.10;63.50
5868;DHT22;2960;49.142;7.768;2022-09-24T00:28:25;13.10;63.50
5868;DHT22;2960;49.142;7.768;2022-09-24T00:30:52;13.00;64.20
5868;DHT22;2960;49.142;7.768;2022-09-24T00:33:19;13.10;63.60
5868;DHT22;2960;49.142;7.768;2022-09-24T00:35:46;13.10;63.60
5868;DHT22;2960;49.142;7.768;2022-09-24T00:38:14;13.00;63.50
5868;DHT22;2960;49.142;7.768;2022-09-24T00:40:41;13.00;63.60
5868;DHT22;2960;49.142;7.768;2022-09-24T00:43:23;13.00;64.40
5868;DHT22;2960;49.142;7.768;2022-09-24T00:45:52;12.90;63.60
5868;DHT22;2960;49.142;7.768;2022-09-24T00:48:21;12.90;63.60
5868;DHT22;2960;49.142;7.768;2022-09-24T00:50:48;12.90;63.60
5868;DHT22;2960;49.142;7.768;2022-09-24T00:53:19;12.90;63.70
5868;DHT22;2960;49.142;7.768;2022-09-24T00:55:50;12.80;63.70
5868;DHT22;2960;49.142;7.768;2022-09-24T00:58:21;12.80;63.60
5868;DHT22;2960;49.142;7.768;2022-09-24T01:00:51;12.80;63.70
5868;DHT22;2960;49.142;7.768;2022-09-24T01:03:22;12.80;63.70
5868;DHT22;2960;49.142;7.768;2022-09-24T01:05:50;12.70;63.50
5868;DHT22;2960;49.142;7.768;2022-09-24T01:08:19;12.70;63.50
5868;DHT22;2960;49.142;7.768;2022-09-24T01:11:03;12.70;63.40
5868;DHT22;2960;49.142;7.768;2022-09-24T01:13:54;12.70;63.40
5868;DHT22;2960;49.142;7.768;2022-09-24T01:16:45;12.60;63.40
5868;DHT22;2960;49.142;7.768;2022-09-24T01:19:34;12.60;63.50
5868;DHT22;2960;49.142;7.768;2022-09-24T01:22:15;12.60;63.50
5868;DHT22;2960;49.142;7.768;2022-09-24T01:24:59;12.50;63.50
5868;DHT22;2960;49.142;7.768;2022-09-24T01:27:43;12.50;64.30
5868;DHT22;2960;49.142;7.768;2022-09-24T01:30:22;12.50;63.50
5868;DHT22;2960;49.142;7.768;2022-09-24T01:32:54;12.40;63.40
5868;DHT22;2960;49.142;7.768;2022-09-24T01:35:26;12.40;63.30
5868;DHT22;2960;49.142;7.768;2022-09-24T01:37:59;12.40;63.30
5868;DHT22;2960;49.142;7.768;2022-09-24T01:40:28;12.30;63.30
5868;DHT22;2960;49.142;7.768;2022-09-24T01:42:57;12.30;63.40
5868;DHT22;2960;49.142;7.768;2022-09-24T01:45:28;12.30;63.40
5868;DHT22;2960;49.142;7.768;2022-09-24T01:47:58;12.20;63.30
5868;DHT22;2960;49.142;7.768;2022-09-24T01:50:28;12.20;63.40
5868;DHT22;2960;49.142;7.768;2022-09-24T01:53:01;12.10;63.30
5868;DHT22;2960;49.142;7.768;2022-09-24T01:55:36;12.10;63.40
5868;DHT22;2960;49.142;7.768;2022-09-24T01:58:07;12.10;63.40
5868;DHT22;2960;49.142;7.768;2022-09-24T02:00:40;12.00;63.30
5868;DHT22;2960;49.142;7.768;2022-09-24T02:03:13;12.00;63.40
5868;DHT22;2960;49.142;7.768;2022-09-24T02:05:46;12.00;63.40
5868;DHT22;2960;49.142;7.768;2022-09-24T02:08:18;11.90;63.20
5868;DHT22;2960;49.142;7.768;2022-09-24T02:10:52;11.90;63.10
5868;DHT22;2960;49.142;7.768;2022-09-24T02:13:32;11.90;63.10
5868;DHT22;2960;49.142;7.768;2022-09-24T02:16:07;11.90;63.20
5868;DHT22;2960;49.142;7.768;2022-09-24T02:18:39;11.80;63.10
5868;DHT22;2960;49.142;7.768;2022-09-24T02:21:11;11.80;63.80
5868;DHT22;2960;49.142;7.768;2022-09-24T02:23:42;11.80;63.00
5868;DHT22;2960;49.142;7.768;2022-09-24T02:26:11;11.80;63.70
5868;DHT22;2960;49.142;7.768;2022-09-24T02:28:39;11.80;62.90
5868;DHT22;2960;49.142;7.768;2022-09-24T02:31:11;11.70;62.80
5868;DHT22;2960;49.142;7.768;2022-09-24T02:33:43;11.70;62.90
5868;DHT22;2960;49.142;7.768;2022-09-24T02:36:29;11.60;62.90
5868;DHT22;2960;49.142;7.768;2022-09-24T02:38:57;11.60;63.00
5868;DHT22;2960;49.142;7.768;2022-09-24T02:41:25;11.50;62.90
5868;DHT22;2960;49.142;7.768;2022-09-24T02:43:52;11.50;63.00
5868;DHT22;2960;49.142;7.768;2022-09-24T02:46:21;11.50;63.00
5868;DHT22;2960;49.142;7.768;2022-09-24T02:48:48;11.40;62.90
5868;DHT22;2960;49.142;7.768;2022-09-24T02:51:16;11.50;63.10
5868;DHT22;2960;49.142;7.768;2022-09-24T02:53:43;11.40;63.00
5868;DHT22;2960;49.142;7.768;2022-09-24T02:56:10;11.40;63.00
5868;DHT22;2960;49.142;7.768;2022-09-24T02:58:37;11.30;62.80
5868;DHT22;2960;49.142;7.768;2022-09-24T03:01:04;11.30;62.70
5868;DHT22;2960;49.142;7.768;2022-09-24T03:03:33;11.30;62.70
5868;DHT22;2960;49.142;7.768;2022-09-24T03:06:00;11.30;62.70
5868;DHT22;2960;49.142;7.768;2022-09-24T03:08:27;11.30;62.70
5868;DHT22;2960;49.142;7.768;2022-09-24T03:10:56;11.30;62.70
5868;DHT22;2960;49.142;7.768;2022-09-24T03:13:25;11.30;62.70
5868;DHT22;2960;49.142;7.768;2022-09-24T03:15:52;11.20;62.60
5868;DHT22;2960;49.142;7.768;2022-09-24T03:18:19;11.20;62.60
5868;DHT22;2960;49.142;7.768;2022-09-24T03:20:55;11.20;62.70
5868;DHT22;2960;49.142;7.768;2022-09-24T03:23:23;11.10;62.70
5868;DHT22;2960;49.142;7.768;2022-09-24T03:25:50;11.10;62.70
5868;DHT22;2960;49.142;7.768;2022-09-24T03:28:17;11.10;62.80
5868;DHT22;2960;49.142;7.768;2022-09-24T03:30:45;11.10;62.80
5868;DHT22;2960;49.142;7.768;2022-09-24T03:33:29;11.00;62.70
5868;DHT22;2960;49.142;7.768;2022-09-24T03:35:59;11.00;62.80
5868;DHT22;2960;49.142;7.768;2022-09-24T03:38:28;11.00;62.90
5868;DHT22;2960;49.142;7.768;2022-09-24T03:40:56;10.90;62.70
5868;DHT22;2960;49.142;7.768;2022-09-24T03:43:24;10.90;62.80
5868;DHT22;2960;49.142;7.768;2022-09-24T03:45:51;10.90;62.80
5868;DHT22;2960;49.142;7.768;2022-09-24T03:48:19;10.90;62.80
5868;DHT22;2960;49.142;7.768;2022-09-24T03:50:48;10.90;62.90
5868;DHT22;2960;49.142;7.768;2022-09-24T03:53:17;10.80;62.80
5868;DHT22;2960;49.142;7.768;2022-09-24T03:55:53;10.80;62.80
5868;DHT22;2960;49.142;7.768;2022-09-24T03:58:21;10.80;62.70
5868;DHT22;2960;49.142;7.768;2022-09-24T04:00:50;10.80;62.80
5868;DHT22;2960;49.142;7.768;2022-09-24T04:03:18;10.80;62.70
5868;DHT22;2960;49.142;7.768;2022-09-24T04:05:46;10.90;62.80
5868;DHT22;2960;49.142;7.768;2022-09-24T04:08:14;10.80;63.40
5868;DHT22;2960;49.142;7.768;2022-09-24T04:10:43;10.80;62.70
5868;DHT22;2960;49.142;7.768;2022-09-24T04:13:11;10.80;63.50
5868;DHT22;2960;49.142;7.768;2022-09-24T04:15:38;10.80;63.50
5868;DHT22;2960;49.142;7.768;2022-09-24T04:18:05;10.80;62.80
5868;DHT22;2960;49.142;7.768;2022-09-24T04:20:32;10.80;62.80
5868;DHT22;2960;49.142;7.768;2022-09-24T04:23:00;10.80;62.90
5868;DHT22;2960;49.142;7.768;2022-09-24T04:25:30;10.70;62.80
5868;DHT22;2960;49.142;7.768;2022-09-24T04:28:00;10.70;62.90
5868;DHT22;2960;49.142;7.768;2022-09-24T04:30:30;10.70;62.90
5868;DHT22;2960;49.142;7.768;2022-09-24T04:32:58;10.70;63.00
5868;DHT22;2960;49.142;7.768;2022-09-24T04:35:26;10.70;63.00
5868;DHT22;2960;49.142;7.768;2022-09-24T04:37:55;10.60;63.00
5868;DHT22;2960;49.142;7.768;2022-09-24T04:40:22;10.60;63.10
5868;DHT22;2960;49.142;7.768;2022-09-24T04:42:50;10.60;63.10
5868;DHT22;2960;49.142;7.768;2022-09-24T04:45:18;10.60;63.10
5868;DHT22;2960;49.142;7.768;2022-09-24T04:47:46;10.60;63.90
5868;DHT22;2960;49.142;7.768;2022-09-24T04:50:17;10.60;63.10
5868;DHT22;2960;49.142;7.768;2022-09-24T04:52:45;10.60;63.20
5868;DHT22;2960;49.142;7.768;2022-09-24T04:55:12;10.60;63.20
5868;DHT22;2960;49.142;7.768;2022-09-24T04:57:39;10.60;63.20
5868;DHT22;2960;49.142;7.768;2022-09-24T05:00:10;10.60;63.30
5868;DHT22;2960;49.142;7.768;2022-09-24T05:02:41;10.60;63.30
5868;DHT22;2960;49.142;7.768;2022-09-24T05:05:09;10.60;63.40
5868;DHT22;2960;49.142;7.768;2022-09-24T05:07:37;10.60;63.50
5868;DHT22;2960;49.142;7.768;2022-09-24T05:10:05;10.60;63.50
5868;DHT22;2960;49.142;7.768;2022-09-24T05:12:33;10.60;63.50
5868;DHT22;2960;49.142;7.768;2022-09-24T05:15:00;10.60;63.50
5868;DHT22;2960;49.142;7.768;2022-09-24T05:17:28;10.60;63.60
5868;DHT22;2960;49.142;7.768;2022-09-24T05:19:56;10.70;63.70
5868;DHT22;2960;49.142;7.768;2022-09-24T05:22:26;10.70;63.80
5868;DHT22;2960;49.142;7.768;2022-09-24T05:24:53;10.70;63.80
5868;DHT22;2960;49.142;7.768;2022-09-24T05:27:20;10.70;63.80
5868;DHT22;2960;49.142;7.768;2022-09-24T05:29:47;10.70;63.90
5868;DHT22;2960;49.142;7.768;2022-09-24T05:32:16;10.70;64.00
5868;DHT22;2960;49.142;7.768;2022-09-24T05:34:45;10.80;64.10
5868;DHT22;2960;49.142;7.768;2022-09-24T05:37:14;10.70;64.10
5868;DHT22;2960;49.142;7.768;2022-09-24T05:39:41;10.70;64.00
5868;DHT22;2960;49.142;7.768;2022-09-24T05:42:09;10.70;64.10
5868;DHT22;2960;49.142;7.768;2022-09-24T05:44:38;10.70;64.10
5868;DHT22;2960;49.142;7.768;2022-09-24T05:47:05;10.70;64.10
5868;DHT22;2960;49.142;7.768;2022-09-24T05:49:32;10.70;64.20
5868;DHT22;2960;49.142;7.768;2022-09-24T05:52:00;10.70;64.20
5868;DHT22;2960;49.142;7.768;2022-09-24T05:54:28;10.80;64.40
5868;DHT22;2960;49.142;7.768;2022-09-24T05:56:55;10.70;64.40
5868;DHT22;2960;49.142;7.768;2022-09-24T05:59:22;10.70;64.40
5868;DHT22;2960;49.142;7.768;2022-09-24T06:01:49;10.70;64.50
5868;DHT22;2960;49.142;7.768;2022-09-24T06:04:17;10.70;64.60
5868;DHT22;2960;49.142;7.768;2022-09-24T06:06:44;10.70;64.70
5868;DHT22;2960;49.142;7.768;2022-09-24T06:09:11;10.80;64.90
5868;DHT22;2960;49.142;7.768;2022-09-24T06:11:40;10.70;64.80
5868;DHT22;2960;49.142;7.768;2022-09-24T06:14:07;10.70;65.60
5868;DHT22;2960;49.142;7.768;2022-09-24T06:16:35;10.70;64.90
5868;DHT22;2960;49.142;7.768;2022-09-24T06:19:03;10.70;65.00
5868;DHT22;2960;49.142;7.768;2022-09-24T06:21:30;10.70;65.00
5868;DHT22;2960;49.142;7.768;2022-09-24T06:23:57;10.80;65.10
5868;DHT22;2960;49.142;7.768;2022-09-24T06:26:24;10.80;65.20
5868;DHT22;2960;49.142;7.768;2022-09-24T06:28:54;10.80;65.20
5868;DHT22;2960;49.142;7.768;2022-09-24T06:31:21;10.80;65.20
5868;DHT22;2960;49.142;7.768;2022-09-24T06:33:48;10.90;66.00
5868;DHT22;2960;49.142;7.768;2022-09-24T06:36:15;10.90;65.30
5868;DHT22;2960;49.142;7.768;2022-09-24T06:38:42;10.90;65.30
5868;DHT22;2960;49.142;7.768;2022-09-24T06:41:10;10.90;65.40
5868;DHT22;2960;49.142;7.768;2022-09-24T06:43:40;11.00;65.50
5868;DHT22;2960;49.142;7.768;2022-09-24T06:46:08;11.00;65.60
5868;DHT22;2960;49.142;7.768;2022-09-24T06:48:36;11.00;65.70
5868;DHT22;2960;49.142;7.768;2022-09-24T06:51:04;11.00;65.70
5868;DHT22;2960;49.142;7.768;2022-09-24T06:53:32;11.10;65.90
5868;DHT22;2960;49.142;7.768;2022-09-24T06:55:59;11.10;65.80
5868;DHT22;2960;49.142;7.768;2022-09-24T06:58:28;11.10;65.90
5868;DHT22;2960;49.142;7.768;2022-09-24T07:00:57;11.20;66.00
5868;DHT22;2960;49.142;7.768;2022-09-24T07:03:29;11.20;65.90
5868;DHT22;2960;49.142;7.768;2022-09-24T07:06:00;11.20;65.90
5868;DHT22;2960;49.142;7.768;2022-09-24T07:08:28;11.20;65.90
5868;DHT22;2960;49.142;7.768;2022-09-24T07:10:55;11.30;66.10
5868;DHT22;2960;49.142;7.768;2022-09-24T07:13:22;11.30;66.10
5868;DHT22;2960;49.142;7.768;2022-09-24T07:15:50;11.40;66.20
5868;DHT22;2960;49.142;7.768;2022-09-24T07:18:19;11.40;67.10
5868;DHT22;2960;49.142;7.768;2022-09-24T07:20:51;11.50;66.40
5868;DHT22;2960;49.142;7.768;2022-09-24T07:23:19;11.60;66.40
5868;DHT22;2960;49.142;7.768;2022-09-24T07:25:46;11.60;66.40
5868;DHT22;2960;49.142;7.768;2022-09-24T07:28:14;11.60;66.40
5868;DHT22;2960;49.142;7.768;2022-09-24T07:30:41;11.70;66.60
5868;DHT22;2960;49.142;7.768;2022-09-24T07:33:08;11.70;66.60
5868;DHT22;2960;49.142;7.768;2022-09-24T07:35:37;11.70;66.60
5868;DHT22;2960;49.142;7.768;2022-09-24T07:38:09;11.80;66.80
5868;DHT22;2960;49.142;7.768;2022-09-24T07:40:37;11.80;67.60
5868;DHT22;2960;49.142;7.768;2022-09-24T07:43:04;11.80;66.90
5868;DHT22;2960;49.142;7.768;2022-09-24T07:45:38;11.80;66.90
5868;DHT22;2960;49.142;7.768;2022-09-24T07:48:06;11.80;66.90
5868;DHT22;2960;49.142;7.768;2022-09-24T07:50:34;11.80;66.90
5868;DHT22;2960;49.142;7.768;2022-09-24T07:53:06;11.90;67.20
5868;DHT22;2960;49.142;7.768;2022-09-24T07:55:34;11.90;67.20
5868;DHT22;2960;49.142;7.768;2022-09-24T07:58:03;11.90;67.20
5868;DHT22;2960;49.142;7.768;2022-09-24T08:00:30;12.00;67.30
5868;DHT22;2960;49.142;7.768;2022-09-24T08:02:58;12.00;67.30
5868;DHT22;2960;49.142;7.768;2022-09-24T08:05:25;12.00;67.30
5868;DHT22;2960;49.142;7.768;2022-09-24T08:07:53;12.00;67.30
5868;DHT22;2960;49.142;7.768;2022-09-24T08:10:23;12.10;67.50
5868;DHT22;2960;49.142;7.768;2022-09-24T08:12:52;12.10;67.50
5868;DHT22;2960;49.142;7.768;2022-09-24T08:15:21;12.10;67.50
5868;DHT22;2960;49.142;7.768;2022-09-24T08:17:48;12.10;67.50
5868;DHT22;2960;49.142;7.768;2022-09-24T08:20:16;12.20;67.70
5868;DHT22;2960;49.142;7.768;2022-09-24T08:22:43;12.20;67.70
5868;DHT22;2960;49.142;7.768;2022-09-24T08:25:10;12.20;67.70
5868;DHT22;2960;49.142;7.768;2022-09-24T08:27:39;12.20;67.70
5868;DHT22;2960;49.142;7.768;2022-09-24T08:30:07;12.20;67.70
5868;DHT22;2960;49.142;7.768;2022-09-24T08:32:35;12.30;67.90
5868;DHT22;2960;49.142;7.768;2022-09-24T08:35:02;12.30;67.90
5868;DHT22;2960;49.142;7.768;2022-09-24T08:37:30;12.30;67.90
5868;DHT22;2960;49.142;7.768;2022-09-24T08:39:58;12.40;68.10
5868;DHT22;2960;49.142;7.768;2022-09-24T08:42:34;12.50;68.20
5868;DHT22;2960;49.142;7.768;2022-09-24T08:45:08;12.60;68.30
5868;DHT22;2960;49.142;7.768;2022-09-24T08:47:56;12.80;68.50
5868;DHT22;2960;49.142;7.768;2022-09-24T08:50:28;12.90;68.40
5868;DHT22;2960;49.142;7.768;2022-09-24T08:53:02;13.00;68.40
5868;DHT22;2960;49.142;7.768;2022-09-24T08:55:38;13.10;68.40
5868;DHT22;2960;49.142;7.768;2022-09-24T08:58:30;13.20;68.30
5868;DHT22;2960;49.142;7.768;2022-09-24T09:01:06;13.20;68.20
5868;DHT22;2960;49.142;7.768;2022-09-24T09:03:44;13.30;68.20
5868;DHT22;2960;49.142;7.768;2022-09-24T09:06:24;13.40;68.20
5868;DHT22;2960;49.142;7.768;2022-09-24T09:09:06;13.40;68.10
5868;DHT22;2960;49.142;7.768;2022-09-24T09:11:38;13.50;68.20
5868;DHT22;2960;49.142;7.768;2022-09-24T09:14:11;13.60;68.30
5868;DHT22;2960;49.142;7.768;2022-09-24T09:16:46;13.70;68.30
5868;DHT22;2960;49.142;7.768;2022-09-24T09:19:16;13.80;68.20
5868;DHT22;2960;49.142;7.768;2022-09-24T09:21:48;13.90;68.10
5868;DHT22;2960;49.142;7.768;2022-09-24T09:24:20;13.90;67.90
5868;DHT22;2960;49.142;7.768;2022-09-24T09:26:52;14.00;68.70
5868;DHT22;2960;49.142;7.768;2022-09-24T09:29:22;14.00;67.80
5868;DHT22;2960;49.142;7.768;2022-09-24T09:32:02;14.10;67.90
5868;DHT22;2960;49.142;7.768;2022-09-24T09:34:47;14.10;68.00
5868;DHT22;2960;49.142;7.768;2022-09-24T09:37:26;14.20;68.10
5868;DHT22;2960;49.142;7.768;2022-09-24T09:40:02;14.30;68.90
5868;DHT22;2960;49.142;7.768;2022-09-24T09:42:35;14.40;68.10
5868;DHT22;2960;49.142;7.768;2022-09-24T09:45:18;14.50;68.20
5868;DHT22;2960;49.142;7.768;2022-09-24T09:47:59;14.60;68.10
5868;DHT22;2960;49.142;7.768;2022-09-24T09:50:31;14.70;68.10
5868;DHT22;2960;49.142;7.768;2022-09-24T09:53:01;14.90;69.10
5868;DHT22;2960;49.142;7.768;2022-09-24T09:55:33;15.10;68.50
5868;DHT22;2960;49.142;7.768;2022-09-24T09:58:14;15.40;68.80
5868;DHT22;2960;49.142;7.768;2022-09-24T10:00:44;15.80;69.20
5868;DHT22;2960;49.142;7.768;2022-09-24T10:03:27;16.20;69.10
5868;DHT22;2960;49.142;7.768;2022-09-24T10:05:57;16.70;68.60
5868;DHT22;2960;49.142;7.768;2022-09-24T10:08:26;17.00;68.10
5868;DHT22;2960;49.142;7.768;2022-09-24T10:10:54;17.30;68.60
5868;DHT22;2960;49.142;7.768;2022-09-24T10:13:22;17.60;67.70
5868;DHT22;2960;49.142;7.768;2022-09-24T10:15:51;17.80;67.50
5868;DHT22;2960;49.142;7.768;2022-09-24T10:18:28;18.00;66.90
5868;DHT22;2960;49.142;7.768;2022-09-24T10:20:59;18.20;67.30
5868;DHT22;2960;49.142;7.768;2022-09-24T10:23:33;18.20;66.10
5868;DHT22;2960;49.142;7.768;2022-09-24T10:26:02;18.20;66.00
5868;DHT22;2960;49.142;7.768;2022-09-24T10:28:30;18.20;66.70
5868;DHT22;2960;49.142;7.768;2022-09-24T10:31:19;18.20;65.90
5868;DHT22;2960;49.142;7.768;2022-09-24T10:33:52;18.30;66.00
5868;DHT22;2960;49.142;7.768;2022-09-24T10:36:22;18.30;65.90
5868;DHT22;2960;49.142;7.768;2022-09-24T10:39:01;18.30;65.70
5868;DHT22;2960;49.142;7.768;2022-09-24T10:41:30;18.40;65.80
5868;DHT22;2960;49.142;7.768;2022-09-24T10:44:02;18.30;65.70
5868;DHT22;2960;49.142;7.768;2022-09-24T10:46:58;18.30;65.70
5868;DHT22;2960;49.142;7.768;2022-09-24T10:49:53;18.30;65.80
5868;DHT22;2960;49.142;7.768;2022-09-24T10:52:37;18.20;66.60
5868;DHT22;2960;49.142;7.768;2022-09-24T10:55:17;18.20;66.10
5868;DHT22;2960;49.142;7.768;2022-09-24T10:57:57;18.20;66.40
5868;DHT22;2960;49.142;7.768;2022-09-24T11:00:36;18.20;66.40
5868;DHT22;2960;49.142;7.768;2022-09-24T11:03:35;18.20;66.50
5868;DHT22;2960;49.142;7.768;2022-09-24T11:06:35;18.30;66.40
5868;DHT22;2960;49.142;7.768;2022-09-24T11:09:22;18.30;66.50
5868;DHT22;2960;49.142;7.768;2022-09-24T11:11:59;18.30;66.30
5868;DHT22;2960;49.142;7.768;2022-09-24T11:14:40;18.30;66.20
5868;DHT22;2960;49.142;7.768;2022-09-24T11:17:24;18.30;66.20
5868;DHT22;2960;49.142;7.768;2022-09-24T11:20:08;18.40;66.30
5868;DHT22;2960;49.142;7.768;2022-09-24T11:26:01;18.40;66.30
5868;DHT22;2960;49.142;7.768;2022-09-24T11:28:50;18.40;66.30
5868;DHT22;2960;49.142;7.768;2022-09-24T11:31:33;18.40;66.30
5868;DHT22;2960;49.142;7.768;2022-09-24T11:34:18;18.40;66.20
5868;DHT22;2960;49.142;7.768;2022-09-24T11:37:05;18.50;66.20
5868;DHT22;2960;49.142;7.768;2022-09-24T11:39:52;18.50;66.30
5868;DHT22;2960;49.142;7.768;2022-09-24T11:42:30;18.50;66.10
5868;DHT22;2960;49.142;7.768;2022-09-24T11:45:21;18.50;66.10
5868;DHT22;2960;49.142;7.768;2022-09-24T11:48:08;18.60;66.10
5868;DHT22;2960;49.142;7.768;2022-09-24T11:50:50;18.60;66.70
5868;DHT22;2960;49.142;7.768;2022-09-24T11:53:28;18.70;65.70
5868;DHT22;2960;49.142;7.768;2022-09-24T11:56:05;18.80;65.60
5868;DHT22;2960;49.142;7.768;2022-09-24T11:58:41;18.80;65.30
5868;DHT22;2960;49.142;7.768;2022-09-24T12:01:13;18.90;65.30
5868;DHT22;2960;49.142;7.768;2022-09-24T12:03:46;19.00;65.10
5868;DHT22;2960;49.142;7.768;2022-09-24T12:06:20;19.00;64.80
5868;DHT22;2960;49.142;7.768;2022-09-24T12:08:53;19.10;64.50
5868;DHT22;2960;49.142;7.768;2022-09-24T12:11:28;19.10;64.20
5868;DHT22;2960;49.142;7.768;2022-09-24T12:14:02;19.10;64.20
5868;DHT22;2960;49.142;7.768;2022-09-24T12:16:36;19.10;64.20
5868;DHT22;2960;49.142;7.768;2022-09-24T12:19:11;19.10;64.00
5868;DHT22;2960;49.142;7.768;2022-09-24T12:21:45;19.10;64.00
5868;DHT22;2960;49.142;7.768;2022-09-24T12:24:17;19.10;63.80
5868;DHT22;2960;49.142;7.768;2022-09-24T12:26:50;19.20;63.80
5868;DHT22;2960;49.142;7.768;2022-09-24T12:29:34;19.20;63.70
5868;DHT22;2960;49.142;7.768;2022-09-24T12:32:29;19.20;63.40
5868;DHT22;2960;49.142;7.768;2022-09-24T12:35:28;19.20;63.30
5868;DHT22;2960;49.142;7.768;2022-09-24T12:38:03;19.20;63.20
5868;DHT22;2960;49.142;7.768;2022-09-24T12:43:51;19.10;62.80
5868;DHT22;2960;49.142;7.768;2022-09-24T12:46:23;19.10;62.80
5868;DHT22;2960;49.142;7.768;2022-09-24T12:48:53;19.10;62.80
5868;DHT22;2960;49.142;7.768;2022-09-24T12:51:21;19.10;62.80
5868;DHT22;2960;49.142;7.768;2022-09-24T12:53:57;19.10;63.60
5868;DHT22;2960;49.142;7.768;2022-09-24T12:56:27;19.10;62.90
5868;DHT22;2960;49.142;7.768;2022-09-24T12:58:57;19.10;62.80
5868;DHT22;2960;49.142;7.768;2022-09-24T13:01:29;19.20;62.40
5868;DHT22;2960;49.142;7.768;2022-09-24T13:04:05;19.20;62.20
5868;DHT22;2960;49.142;7.768;2022-09-24T13:06:51;19.20;62.00
5868;DHT22;2960;49.142;7.768;2022-09-24T13:09:28;19.20;61.70
5868;DHT22;2960;49.142;7.768;2022-09-24T13:12:05;19.20;61.50
5868;DHT22;2960;49.142;7.768;2022-09-24T13:14:51;19.20;61.50
5868;DHT22;2960;49.142;7.768;2022-09-24T13:17:22;19.20;61.50
5868;DHT22;2960;49.142;7.768;2022-09-24T13:19:56;19.20;62.30
5868;DHT22;2960;49.142;7.768;2022-09-24T13:22:26;19.20;61.00
5868;DHT22;2960;49.142;7.768;2022-09-24T13:25:18;19.20;61.00
5868;DHT22;2960;49.142;7.768;2022-09-24T13:27:59;19.20;61.10
5868;DHT22;2960;49.142;7.768;2022-09-24T13:30:39;19.20;61.10
5868;DHT22;2960;49.142;7.768;2022-09-24T13:33:18;19.10;61.10
5868;DHT22;2960;49.142;7.768;2022-09-24T13:35:59;19.10;61.20
5868;DHT22;2960;49.142;7.768;2022-09-24T13:38:33;19.10;61.40
5868;DHT22;2960;49.142;7.768;2022-09-24T13:43:58;19.10;61.50
5868;DHT22;2960;49.142;7.768;2022-09-24T13:46:29;19.10;62.20
5868;DHT22;2960;49.142;7.768;2022-09-24T13:49:00;19.10;61.50
5868;DHT22;2960;49.142;7.768;2022-09-24T13:51:33;19.10;61.40
5868;DHT22;2960;49.142;7.768;2022-09-24T13:54:05;19.00;61.10
5868;DHT22;2960;49.142;7.768;2022-09-24T13:56:38;19.10;61.20
5868;DHT22;2960;49.142;7.768;2022-09-24T13:59:11;19.10;61.10
5868;DHT22;2960;49.142;7.768;2022-09-24T14:01:42;19.00;61.00
5868;DHT22;2960;49.142;7.768;2022-09-24T14:04:16;19.10;60.90
5868;DHT22;2960;49.142;7.768;2022-09-24T14:06:47;19.10;60.80
5868;DHT22;2960;49.142;7.768;2022-09-24T14:09:25;19.10;60.50
5868;DHT22;2960;49.142;7.768;2022-09-24T14:11:56;19.10;60.30
5868;DHT22;2960;49.142;7.768;2022-09-24T14:14:27;19.10;61.10
5868;DHT22;2960;49.142;7.768;2022-09-24T14:17:06;19.10;60.10
5868;DHT22;2960;49.142;7.768;2022-09-24T14:19:34;19.10;60.00
5868;DHT22;2960;49.142;7.768;2022-09-24T14:22:03;19.10;60.00
5868;DHT22;2960;49.142;7.768;2022-09-24T14:24:33;19.10;59.90
5868;DHT22;2960;49.142;7.768;2022-09-24T14:27:02;19.10;59.80
5868;DHT22;2960;49.142;7.768;2022-09-24T14:29:37;19.10;59.80
5868;DHT22;2960;49.142;7.768;2022-09-24T14:32:19;19.10;60.70
5868;DHT22;2960;49.142;7.768;2022-09-24T14:34:50;19.10;60.10
5868;DHT22;2960;49.142;7.768;2022-09-24T14:37:20;19.10;60.00
5868;DHT22;2960;49.142;7.768;2022-09-24T14:39:56;19.10;60.00
5868;DHT22;2960;49.142;7.768;2022-09-24T14:42:28;19.10;60.10
5868;DHT22;2960;49.142;7.768;2022-09-24T14:44:57;19.20;60.30
5868;DHT22;2960;49.142;7.768;2022-09-24T14:47:28;19.20;60.30
5868;DHT22;2960;49.142;7.768;2022-09-24T14:49:56;19.20;60.30
5868;DHT22;2960;49.142;7.768;2022-09-24T14:52:28;19.30;60.30
5868;DHT22;2960;49.142;7.768;2022-09-24T14:55:02;19.30;60.20
5868;DHT22;2960;49.142;7.768;2022-09-24T14:57:38;19.30;60.30
5868;DHT22;2960;49.142;7.768;2022-09-24T15:00:21;19.40;60.40
5868;DHT22;2960;49.142;7.768;2022-09-24T15:02:57;19.40;60.20
5868;DHT22;2960;49.142;7.768;2022-09-24T15:05:27;19.40;60.10
5868;DHT22;2960;49.142;7.768;2022-09-24T15:08:16;19.40;60.20
5868;DHT22;2960;49.142;7.768;2022-09-24T15:10:52;19.40;60.00
5868;DHT22;2960;49.142;7.768;2022-09-24T15:13:22;19.40;60.00
5868;DHT22;2960;49.142;7.768;2022-09-24T15:16:01;19.40;60.00
5868;DHT22;2960;49.142;7.768;2022-09-24T15:18:33;19.40;59.90
5868;DHT22;2960;49.142;7.768;2022-09-24T15:21:01;19.30;59.80
5868;DHT22;2960;49.142;7.768;2022-09-24T15:23:32;19.30;59.90
5868;DHT22;2960;49.142;7.768;2022-09-24T15:25:59;19.30;59.90
5868;DHT22;2960;49.142;7.768;2022-09-24T15:28:26;19.30;59.80
5868;DHT22;2960;49.142;7.768;2022-09-24T15:30:54;19.30;59.80
5868;DHT22;2960;49.142;7.768;2022-09-24T15:33:22;19.20;59.70
5868;DHT22;2960;49.142;7.768;2022-09-24T15:35:50;19.20;59.70
5868;DHT22;2960;49.142;7.768;2022-09-24T15:38:18;19.20;59.70
5868;DHT22;2960;49.142;7.768;2022-09-24T15:40:46;19.20;59.80
5868;DHT22;2960;49.142;7.768;2022-09-24T15:43:19;19.10;60.00
5868;DHT22;2960;49.142;7.768;2022-09-24T15:45:47;19.10;60.20
5868;DHT22;2960;49.142;7.768;2022-09-24T15:48:15;19.00;60.50
5868;DHT22;2960;49.142;7.768;2022-09-24T15:50:44;18.90;60.60
5868;DHT22;2960;49.142;7.768;2022-09-24T15:53:16;18.90;60.80
5868;DHT22;2960;49.142;7.768;2022-09-24T15:55:46;18.90;61.10
5868;DHT22;2960;49.142;7.768;2022-09-24T15:58:14;18.90;61.30
5868;DHT22;2960;49.142;7.768;2022-09-24T16:00:42;18.80;61.30
5868;DHT22;2960;49.142;7.768;2022-09-24T16:03:16;18.80;61.50
5868;DHT22;2960;49.142;7.768;2022-09-24T16:05:45;18.80;61.80
5868;DHT22;2960;49.142;7.768;2022-09-24T16:08:14;18.70;61.80
5868;DHT22;2960;49.142;7.768;2022-09-24T16:10:41;18.70;62.00
5868;DHT22;2960;49.142;7.768;2022-09-24T16:13:09;18.70;62.20
5868;DHT22;2960;49.142;7.768;2022-09-24T16:15:36;18.60;62.30
5868;DHT22;2960;49.142;7.768;2022-09-24T16:18:04;18.50;62.40
5868;DHT22;2960;49.142;7.768;2022-09-24T16:20:32;18.50;62.70
5868;DHT22;2960;49.142;7.768;2022-09-24T16:22:59;18.50;62.90
5868;DHT22;2960;49.142;7.768;2022-09-24T16:25:27;18.40;63.00
5868;DHT22;2960;49.142;7.768;2022-09-24T16:27:56;18.40;63.20
5868;DHT22;2960;49.142;7.768;2022-09-24T16:30:24;18.30;63.30
5868;DHT22;2960;49.142;7.768;2022-09-24T16:32:51;18.30;63.50
5868;DHT22;2960;49.142;7.768;2022-09-24T16:35:18;18.30;63.70
5868;DHT22;2960;49.142;7.768;2022-09-24T16:37:45;18.20;63.80
5868;DHT22;2960;49.142;7.768;2022-09-24T16:40:12;18.20;63.90
5868;DHT22;2960;49.142;7.768;2022-09-24T16:42:41;18.10;64.00